Map

Track Data

SID SEASON NUMBER BASIN SUBBASIN NAME ISO_TIME NATURE LAT LON WMO_WIND WMO_PRES WMO_AGENCY TRACK_TYPE DIST2LAND LANDFALL IFLAG USA_AGENCY USA_ATCF_ID USA_LAT USA_LON USA_RECORD USA_STATUS USA_WIND USA_PRES USA_SSHS USA_R34_NE USA_R34_SE USA_R34_SW USA_R34_NW USA_R50_NE USA_R50_SE USA_R50_SW USA_R50_NW USA_R64_NE USA_R64_SE USA_R64_SW USA_R64_NW USA_POCI USA_ROCI USA_RMW USA_EYE TOKYO_LAT TOKYO_LON TOKYO_GRADE TOKYO_WIND TOKYO_PRES TOKYO_R50_DIR TOKYO_R50_LONG TOKYO_R50_SHORT TOKYO_R30_DIR TOKYO_R30_LONG TOKYO_R30_SHORT TOKYO_LAND CMA_LAT CMA_LON CMA_CAT CMA_WIND CMA_PRES HKO_LAT HKO_LON HKO_CAT HKO_WIND HKO_PRES NEWDELHI_LAT NEWDELHI_LON NEWDELHI_GRADE NEWDELHI_WIND NEWDELHI_PRES NEWDELHI_CI NEWDELHI_DP NEWDELHI_POCI REUNION_LAT REUNION_LON REUNION_TYPE REUNION_WIND REUNION_PRES REUNION_TNUM REUNION_CI REUNION_RMW REUNION_R34_NE REUNION_R34_SE REUNION_R34_SW REUNION_R34_NW REUNION_R50_NE REUNION_R50_SE REUNION_R50_SW REUNION_R50_NW REUNION_R64_NE REUNION_R64_SE REUNION_R64_SW REUNION_R64_NW BOM_LAT BOM_LON BOM_TYPE BOM_WIND BOM_PRES BOM_TNUM BOM_CI BOM_RMW BOM_R34_NE BOM_R34_SE BOM_R34_SW BOM_R34_NW BOM_R50_NE BOM_R50_SE BOM_R50_SW BOM_R50_NW BOM_R64_NE BOM_R64_SE BOM_R64_SW BOM_R64_NW BOM_ROCI BOM_POCI BOM_EYE BOM_POS_METHOD BOM_PRES_METHOD NADI_LAT NADI_LON NADI_CAT NADI_WIND NADI_PRES WELLINGTON_LAT WELLINGTON_LON WELLINGTON_WIND WELLINGTON_PRES DS824_LAT DS824_LON DS824_STAGE DS824_WIND DS824_PRES TD9636_LAT TD9636_LON TD9636_STAGE TD9636_WIND TD9636_PRES TD9635_LAT TD9635_LON TD9635_WIND TD9635_PRES TD9635_ROCI NEUMANN_LAT NEUMANN_LON NEUMANN_CLASS NEUMANN_WIND NEUMANN_PRES MLC_LAT MLC_LON MLC_CLASS MLC_WIND MLC_PRES USA_GUST BOM_GUST BOM_GUST_PER REUNION_GUST REUNION_GUST_PER USA_SEAHGT USA_SEARAD_NE USA_SEARAD_SE USA_SEARAD_SW USA_SEARAD_NW STORM_SPEED STORM_DIR
1999302N11279 1999 94 NA CS KATRINA 1999-10-28 18:00:00 TS 11.4000 -80.9000 30 1001 hurdat_atl main 250 250 O_____________ hurdat_atl AL151999 11.4000 -80.9000 TD 30 1001 -1 8 283
1999302N11279 1999 94 NA CS KATRINA 1999-10-28 21:00:00 TS 11.4852 -81.2849 main 250 218 P_____________ AL151999 11.4852 -81.2849 TD 30 1001 -1 7 286
1999302N11279 1999 94 NA CS KATRINA 1999-10-29 00:00:00 TS 11.6000 -81.6000 30 1001 hurdat_atl main 218 196 O_____________ hurdat_atl AL151999 11.6000 -81.6000 TD 30 1001 -1 6 299
1999302N11279 1999 94 NA CS KATRINA 1999-10-29 03:00:00 TS 11.7699 -81.8076 main 196 169 P_____________ AL151999 11.7699 -81.8076 TD 30 1001 -1 6 316
1999302N11279 1999 94 NA CS KATRINA 1999-10-29 06:00:00 TS 12.0000 -82.0000 30 1001 hurdat_atl main 169 130 O_____________ hurdat_atl AL151999 12.0000 -82.0000 TD 30 1001 -1 7 316
1999302N11279 1999 94 NA CS KATRINA 1999-10-29 09:00:00 TS 12.2851 -82.3074 main 130 97 P_____________ AL151999 12.2851 -82.3074 TD 30 1000 -1 8 316
1999302N11279 1999 94 NA CS KATRINA 1999-10-29 12:00:00 TS 12.6000 -82.6000 30 1000 hurdat_atl main 97 75 O_____________ hurdat_atl AL151999 12.6000 -82.6000 TD 30 1000 -1 8 325
1999302N11279 1999 94 NA CS KATRINA 1999-10-29 15:00:00 TS 12.8999 -82.7577 main 75 64 P_____________ AL151999 12.8999 -82.7577 TD 32 1000 -1 7 334
1999302N11279 1999 94 NA CS KATRINA 1999-10-29 18:00:00 TS 13.2000 -82.9000 35 1000 hurdat_atl main 64 43 O_____________ hurdat_atl AL151999 13.2000 -82.9000 TS 35 1000 0 7 330
1999302N11279 1999 94 NA CS KATRINA 1999-10-29 21:00:00 TS 13.5225 -83.1275 main 43 10 P_____________ AL151999 13.5225 -83.1275 TS 35 999 0 8 321
1999302N11279 1999 94 NA CS KATRINA 1999-10-30 00:00:00 TS 13.8000 -83.4000 35 999 hurdat_atl main 10 0 O_____________ hurdat_atl AL151999 13.8000 -83.4000 L TS 35 999 0 7 309
1999302N11279 1999 94 NA NA KATRINA 1999-10-30 03:00:00 TS 13.9800 -83.7001 main 0 0 P_____________ AL151999 13.9800 -83.7001 TS 32 999 -1 7 297
1999302N11279 1999 94 NA NA KATRINA 1999-10-30 06:00:00 TS 14.1000 -84.0000 30 1000 hurdat_atl main 0 0 O_____________ hurdat_atl AL151999 14.1000 -84.0000 TD 30 1000 -1 6 292
1999302N11279 1999 94 NA NA KATRINA 1999-10-30 09:00:00 TS 14.1924 -84.2426 main 0 0 P_____________ AL151999 14.1924 -84.2426 TD 27 1000 -1 5 292
1999302N11279 1999 94 NA NA KATRINA 1999-10-30 12:00:00 TS 14.3000 -84.5000 25 1001 hurdat_atl main 0 0 O_____________ hurdat_atl AL151999 14.3000 -84.5000 TD 25 1001 -1 6 293
1999302N11279 1999 94 NA NA KATRINA 1999-10-30 15:00:00 TS 14.4172 -84.7832 main 0 0 P_____________ AL151999 14.4172 -84.7832 TD 25 1002 -1 8 301
1999302N11279 1999 94 NA NA KATRINA 1999-10-30 18:00:00 TS 14.7000 -85.2000 25 1003 hurdat_atl main 0 0 O_____________ hurdat_atl AL151999 14.7000 -85.2000 TD 25 1003 -1 14 309
1999302N11279 1999 94 NA NA KATRINA 1999-10-30 21:00:00 TS 15.2906 -85.8916 main 0 0 P_____________ AL151999 15.2906 -85.8916 TD 25 1004 -1 19 314
1999302N11279 1999 94 NA CS KATRINA 1999-10-31 00:00:00 TS 16.0000 -86.6000 25 1005 hurdat_atl main 30 30 O_____________ hurdat_atl AL151999 16.0000 -86.6000 TD 25 1005 -1 17 320
1999302N11279 1999 94 NA CS KATRINA 1999-10-31 03:00:00 TS 16.6072 -87.0605 main 89 85 P_____________ AL151999 16.6072 -87.0605 TD 25 1006 -1 14 327
1999302N11279 1999 94 NA CS KATRINA 1999-10-31 06:00:00 TS 17.2000 -87.4000 25 1007 hurdat_atl main 87 45 O_____________ hurdat_atl AL151999 17.2000 -87.4000 TD 25 1007 -1 14 333
1999302N11279 1999 94 NA CS KATRINA 1999-10-31 09:00:00 TS 17.8148 -87.7078 main 45 10 P_____________ AL151999 17.8148 -87.7078 TD 25 1007 -1 13 335
1999302N11279 1999 94 NA CS KATRINA 1999-10-31 12:00:00 TS 18.4000 -88.0000 25 1008 hurdat_atl main 10 0 O_____________ hurdat_atl AL151999 18.4000 -88.0000 TD 25 1008 -1 13 333
1999302N11279 1999 94 NA NA KATRINA 1999-10-31 15:00:00 TS 18.9524 -88.3276 main 0 0 P_____________ AL151999 18.9524 -88.3276 TD 25 1008 -1 12 326
1999302N11279 1999 94 NA NA KATRINA 1999-10-31 18:00:00 TS 19.4000 -88.7000 25 1009 hurdat_atl main 0 0 O_____________ hurdat_atl AL151999 19.4000 -88.7000 TD 25 1009 -1 11 312
1999302N11279 1999 94 NA NA KATRINA 1999-10-31 21:00:00 TS 19.6878 -89.1876 main 0 0 P_____________ AL151999 19.6878 -89.1876 TD 22 1009 -1 10 301
1999302N11279 1999 94 NA NA KATRINA 1999-11-01 00:00:00 TS 19.9000 -89.6000 20 1010 hurdat_atl main 0 0 O_____________ hurdat_atl AL151999 19.9000 -89.6000 TD 20 1010 -1 7 309
1999302N11279 1999 94 NA NA KATRINA 1999-11-01 03:00:00 TS 20.1273 -89.7677 main 0 0 P_____________ AL151999 20.1273 -89.7677 TD 20 1010 -1 5 339
1999302N11279 1999 94 NA NA KATRINA 1999-11-01 06:00:00 TS 20.4000 -89.8000 20 1011 hurdat_atl main 0 0 O_____________ hurdat_atl AL151999 20.4000 -89.8000 TD 20 1011 -1 6 356
1999302N11279 1999 94 NA NA KATRINA 1999-11-01 09:00:00 TS 20.7701 -89.8024 main 0 0 P_____________ AL151999 20.7701 -89.8024 TD 20 1011 -1 8 1
1999302N11279 1999 94 NA NA KATRINA 1999-11-01 12:00:00 TS 21.2000 -89.8000 20 1011 hurdat_atl main 0 O_____________ hurdat_atl AL151999 21.2000 -89.8000 TD 20 1011 -1 9 0

About IBTrACS Database

This database is a web-friendly format of International Best Track Archive for Climate Stewardship (IBTrACS), a global best track data archive curated by NOAA dating back to 1842.

Updated: 2021-10-08